地図

経路データ

SID SEASON NUMBER BASIN SUBBASIN NAME ISO_TIME NATURE LAT LON WMO_WIND WMO_PRES WMO_AGENCY TRACK_TYPE DIST2LAND LANDFALL IFLAG USA_AGENCY USA_ATCF_ID USA_LAT USA_LON USA_RECORD USA_STATUS USA_WIND USA_PRES USA_SSHS USA_R34_NE USA_R34_SE USA_R34_SW USA_R34_NW USA_R50_NE USA_R50_SE USA_R50_SW USA_R50_NW USA_R64_NE USA_R64_SE USA_R64_SW USA_R64_NW USA_POCI USA_ROCI USA_RMW USA_EYE TOKYO_LAT TOKYO_LON TOKYO_GRADE TOKYO_WIND TOKYO_PRES TOKYO_R50_DIR TOKYO_R50_LONG TOKYO_R50_SHORT TOKYO_R30_DIR TOKYO_R30_LONG TOKYO_R30_SHORT TOKYO_LAND CMA_LAT CMA_LON CMA_CAT CMA_WIND CMA_PRES HKO_LAT HKO_LON HKO_CAT HKO_WIND HKO_PRES NEWDELHI_LAT NEWDELHI_LON NEWDELHI_GRADE NEWDELHI_WIND NEWDELHI_PRES NEWDELHI_CI NEWDELHI_DP NEWDELHI_POCI REUNION_LAT REUNION_LON REUNION_TYPE REUNION_WIND REUNION_PRES REUNION_TNUM REUNION_CI REUNION_RMW REUNION_R34_NE REUNION_R34_SE REUNION_R34_SW REUNION_R34_NW REUNION_R50_NE REUNION_R50_SE REUNION_R50_SW REUNION_R50_NW REUNION_R64_NE REUNION_R64_SE REUNION_R64_SW REUNION_R64_NW BOM_LAT BOM_LON BOM_TYPE BOM_WIND BOM_PRES BOM_TNUM BOM_CI BOM_RMW BOM_R34_NE BOM_R34_SE BOM_R34_SW BOM_R34_NW BOM_R50_NE BOM_R50_SE BOM_R50_SW BOM_R50_NW BOM_R64_NE BOM_R64_SE BOM_R64_SW BOM_R64_NW BOM_ROCI BOM_POCI BOM_EYE BOM_POS_METHOD BOM_PRES_METHOD NADI_LAT NADI_LON NADI_CAT NADI_WIND NADI_PRES WELLINGTON_LAT WELLINGTON_LON WELLINGTON_WIND WELLINGTON_PRES DS824_LAT DS824_LON DS824_STAGE DS824_WIND DS824_PRES TD9636_LAT TD9636_LON TD9636_STAGE TD9636_WIND TD9636_PRES TD9635_LAT TD9635_LON TD9635_WIND TD9635_PRES TD9635_ROCI NEUMANN_LAT NEUMANN_LON NEUMANN_CLASS NEUMANN_WIND NEUMANN_PRES MLC_LAT MLC_LON MLC_CLASS MLC_WIND MLC_PRES USA_GUST BOM_GUST BOM_GUST_PER REUNION_GUST REUNION_GUST_PER USA_SEAHGT USA_SEARAD_NE USA_SEARAD_SE USA_SEARAD_SW USA_SEARAD_NW STORM_SPEED STORM_DIR
1935270N15143 1935 55 WP MM NOT_NAMED 1935-09-27 09:00:00 NR 15.0000 143.200 main 1937 1918 __________O___ -1 15.0000 143.200 4 4 0
1935270N15143 1935 55 WP MM NOT_NAMED 1935-09-27 12:00:00 NR 14.8216 143.196 main 1918 1907 __________P___ -1 14.8216 143.196 4 3 0
1935270N15143 1935 55 WP MM NOT_NAMED 1935-09-27 15:00:00 NR 14.7246 143.193 main 1907 1907 __________P___ -1 14.7246 143.193 4 0 218
1935270N15143 1935 55 WP MM NOT_NAMED 1935-09-27 18:00:00 NR 14.7902 143.194 main 1918 1918 __________P___ -1 14.7902 143.194 4 4 0
1935270N15143 1935 55 WP MM NOT_NAMED 1935-09-27 21:00:00 NR 15.1000 143.200 main 1940 1940 __________O___ -1 15.1000 143.200 4 9 0
1935270N15143 1935 55 WP MM NOT_NAMED 1935-09-28 00:00:00 NR 15.7101 143.209 main 1950 1950 __________P___ -1 15.7101 143.209 4 15 0
1935270N15143 1935 55 WP MM NOT_NAMED 1935-09-28 03:00:00 NR 16.5761 143.208 main 1968 1913 __________P___ -1 16.5761 143.208 4 19 359
1935270N15143 1935 55 WP MM NOT_NAMED 1935-09-28 06:00:00 NR 17.6290 143.177 main 1913 1794 __________P___ -1 17.6290 143.177 4 22 357
1935270N15143 1935 55 WP MM NOT_NAMED 1935-09-28 09:00:00 NR 18.8000 143.100 main 1784 1667 __________O___ -1 18.8000 143.100 4 24 355
1935270N15143 1935 55 WP MM NOT_NAMED 1935-09-28 12:00:00 NR 19.9910 142.948 main 1652 1526 __________P___ -1 19.9910 142.948 4 25 352
1935270N15143 1935 55 WP MM NOT_NAMED 1935-09-28 15:00:00 NR 21.2758 142.747 main 1511 1382 __________P___ -1 21.2758 142.747 4 27 351
1935270N15143 1935 55 WP MM NOT_NAMED 1935-09-28 18:00:00 NR 22.5976 142.522 main 1372 1244 __________P___ -1 22.5976 142.522 4 27 351
1935270N15143 1935 55 WP MM NOT_NAMED 1935-09-28 21:00:00 NR 23.9000 142.300 main 1234 1107 __________O___ -1 23.9000 142.300 4 25 347
1935270N15143 1935 55 WP MM NOT_NAMED 1935-09-29 00:00:00 NR 25.0325 141.903 main 1107 985 __________P___ -1 25.0325 141.903 4 24 343
1935270N15143 1935 55 WP MM NOT_NAMED 1935-09-29 03:00:00 NR 26.1476 141.543 main 982 861 __________P___ -1 26.1476 141.543 4 23 348
1935270N15143 1935 55 WP MM NOT_NAMED 1935-09-29 06:00:00 NR 27.3136 141.384 main 851 730 __________P___ -1 27.3136 141.384 4 25 1
1935270N15143 1935 55 WP MM NOT_NAMED 1935-09-29 09:00:00 NR 28.6000 141.600 main 719 587 __________O___ -1 28.6000 141.600 4 31 20
1935270N15143 1935 55 WP MM NOT_NAMED 1935-09-29 12:00:00 NR 30.2297 142.564 main 581 483 __________P___ -1 30.2297 142.564 4 39 31
1935270N15143 1935 55 WP MM NOT_NAMED 1935-09-29 15:00:00 NR 31.9508 143.930 main 481 466 __________P___ -1 31.9508 143.930 4 42 36
1935270N15143 1935 55 WP MM NOT_NAMED 1935-09-29 18:00:00 NR 33.5934 145.414 main 472 472 __________P___ -1 33.5934 145.414 4 38 37
1935270N15143 1935 55 WP MM NOT_NAMED 1935-09-29 21:00:00 NR 35.0000 146.700 main 530 528 __________O___ -1 35.0000 146.700 4 28 32
1935270N15143 1935 55 WP MM NOT_NAMED 1935-09-30 00:00:00 NR 35.9305 147.187 main 566 552 __________P___ -1 35.9305 147.187 4 17 19
1935270N15143 1935 55 WP MM NOT_NAMED 1935-09-30 03:00:00 NR 36.6446 147.409 main 552 536 __________P___ -1 36.6446 147.409 4 14 14
1935270N15143 1935 55 WP MM NOT_NAMED 1935-09-30 06:00:00 NR 37.2871 147.598 main 536 528 __________P___ -1 37.2871 147.598 4 14 19
1935270N15143 1935 55 WP MM NOT_NAMED 1935-09-30 09:00:00 NR 38.0000 148.000 main 536 532 __________O___ -1 38.0000 148.000 4 21 31
1935270N15143 1935 55 WP MM NOT_NAMED 1935-09-30 12:00:00 NR 39.0988 148.965 main 541 506 __________P___ -1 39.0988 148.965 4 28 37
1935270N15143 1935 55 WP MM NOT_NAMED 1935-09-30 15:00:00 NR 40.2574 150.208 main 504 495 __________P___ -1 40.2574 150.208 4 30 42
1935270N15143 1935 55 WP MM NOT_NAMED 1935-09-30 18:00:00 NR 41.3362 151.627 main 498 460 __________P___ -1 41.3362 151.627 4 29 48
1935270N15143 1935 55 WP MM NOT_NAMED 1935-09-30 21:00:00 NR 42.2000 153.100 main 465 461 __________O___ -1 42.2000 153.100 4 26 56
1935270N15143 1935 55 WP MM NOT_NAMED 1935-10-01 00:00:00 NR 42.7554 154.515 main 486 486 __________P___ -1 42.7554 154.515 4 22 67
1935270N15143 1935 55 WP MM NOT_NAMED 1935-10-01 03:00:00 NR 43.0520 155.857 main 546 546 __________P___ -1 43.0520 155.857 4 20 78
1935270N15143 1935 55 WP MM NOT_NAMED 1935-10-01 06:00:00 NR 43.1730 157.144 main 618 618 __________P___ -1 43.1730 157.144 4 19 85
1935270N15143 1935 55 WP MM NOT_NAMED 1935-10-01 09:00:00 NR 43.2000 158.400 main 707 __________O___ -1 43.2000 158.400 4 18 88

デジタル台風データ・検索

IBTrACS Databaseについて

本データベースは、米国NOAAが公開する1842年以降の世界の熱帯低気圧のベストトラックデータアーカイブInternational Best Track Archive for Climate Stewardship (IBTrACS)を、ウェブで閲覧しやすい形式に変換したものです。

最終更新日:2021-12-06